sensor_id;sensor_type;location;lat;lon;timestamp;temperature;humidity
34522;DHT22;25561;48.888;8.736;2022-09-20T05:32:07;8.70;99.90
34522;DHT22;25561;48.888;8.736;2022-09-20T05:35:28;8.80;99.90
34522;DHT22;25561;48.888;8.736;2022-09-20T05:38:47;8.90;99.90
34522;DHT22;25561;48.888;8.736;2022-09-20T05:42:43;8.90;99.90
34522;DHT22;25561;48.888;8.736;2022-09-20T05:49:40;9.00;99.90
34522;DHT22;25561;48.888;8.736;2022-09-20T05:53:02;9.00;99.90
34522;DHT22;25561;48.888;8.736;2022-09-20T06:00:04;9.20;99.90
34522;DHT22;25561;48.888;8.736;2022-09-20T06:03:43;9.80;99.90
34522;DHT22;25561;48.888;8.736;2022-09-20T06:07:10;11.20;99.90
34522;DHT22;25561;48.888;8.736;2022-09-20T06:10:29;13.00;99.90
34522;DHT22;25561;48.888;8.736;2022-09-20T06:49:43;12.30;99.90
34522;DHT22;25561;48.888;8.736;2022-09-20T06:52:47;12.10;99.90
34522;DHT22;25561;48.888;8.736;2022-09-20T06:55:53;12.60;99.90
34522;DHT22;25561;48.888;8.736;2022-09-20T06:58:55;12.80;99.90
34522;DHT22;25561;48.888;8.736;2022-09-20T07:01:58;13.00;99.90
34522;DHT22;25561;48.888;8.736;2022-09-20T07:05:02;13.40;99.90
34522;DHT22;25561;48.888;8.736;2022-09-20T07:08:04;13.70;99.90
34522;DHT22;25561;48.888;8.736;2022-09-20T07:11:09;14.10;99.90
34522;DHT22;25561;48.888;8.736;2022-09-20T07:14:13;14.50;99.90
34522;DHT22;25561;48.888;8.736;2022-09-20T07:17:16;15.00;99.90
34522;DHT22;25561;48.888;8.736;2022-09-20T07:20:18;15.50;99.90
34522;DHT22;25561;48.888;8.736;2022-09-20T07:23:25;15.80;99.90
34522;DHT22;25561;48.888;8.736;2022-09-20T07:26:28;17.30;99.90
34522;DHT22;25561;48.888;8.736;2022-09-20T07:29:31;18.70;99.90
34522;DHT22;25561;48.888;8.736;2022-09-20T07:32:36;19.10;99.90
34522;DHT22;25561;48.888;8.736;2022-09-20T07:35:39;18.00;99.90
34522;DHT22;25561;48.888;8.736;2022-09-20T07:38:51;17.50;99.90
34522;DHT22;25561;48.888;8.736;2022-09-20T07:41:53;19.50;99.90
34522;DHT22;25561;48.888;8.736;2022-09-20T07:44:56;17.50;99.90
34522;DHT22;25561;48.888;8.736;2022-09-20T07:47:59;18.60;99.90
34522;DHT22;25561;48.888;8.736;2022-09-20T07:51:09;19.70;99.90
34522;DHT22;25561;48.888;8.736;2022-09-20T07:54:11;19.50;99.90
34522;DHT22;25561;48.888;8.736;2022-09-20T07:57:15;20.30;99.90
34522;DHT22;25561;48.888;8.736;2022-09-20T08:00:19;21.00;99.90
34522;DHT22;25561;48.888;8.736;2022-09-20T08:03:23;20.30;99.90
34522;DHT22;25561;48.888;8.736;2022-09-20T08:06:25;19.90;99.90
34522;DHT22;25561;48.888;8.736;2022-09-20T08:09:27;20.40;99.90
34522;DHT22;25561;48.888;8.736;2022-09-20T08:12:31;20.30;99.90
34522;DHT22;25561;48.888;8.736;2022-09-20T08:16:00;19.90;99.90
34522;DHT22;25561;48.888;8.736;2022-09-20T08:19:03;20.60;99.90
34522;DHT22;25561;48.888;8.736;2022-09-20T08:22:05;20.70;99.90
34522;DHT22;25561;48.888;8.736;2022-09-20T08:25:07;21.00;99.90
34522;DHT22;25561;48.888;8.736;2022-09-20T08:28:09;21.70;99.90
34522;DHT22;25561;48.888;8.736;2022-09-20T08:31:14;21.50;99.90
34522;DHT22;25561;48.888;8.736;2022-09-20T08:34:16;22.50;99.90
34522;DHT22;25561;48.888;8.736;2022-09-20T08:37:18;22.50;99.90
34522;DHT22;25561;48.888;8.736;2022-09-20T08:40:22;21.70;99.90
34522;DHT22;25561;48.888;8.736;2022-09-20T08:43:28;21.60;99.90
34522;DHT22;25561;48.888;8.736;2022-09-20T08:46:34;21.20;99.90
34522;DHT22;25561;48.888;8.736;2022-09-20T08:49:37;21.00;99.90
34522;DHT22;25561;48.888;8.736;2022-09-20T08:52:39;21.80;99.90
34522;DHT22;25561;48.888;8.736;2022-09-20T08:55:43;22.90;99.90
34522;DHT22;25561;48.888;8.736;2022-09-20T08:58:46;23.40;99.90
34522;DHT22;25561;48.888;8.736;2022-09-20T09:01:49;25.00;99.90
34522;DHT22;25561;48.888;8.736;2022-09-20T09:04:51;24.60;99.40
34522;DHT22;25561;48.888;8.736;2022-09-20T09:07:54;22.10;99.90
34522;DHT22;25561;48.888;8.736;2022-09-20T09:11:01;20.40;99.90
34522;DHT22;25561;48.888;8.736;2022-09-20T09:14:11;19.90;99.90
34522;DHT22;25561;48.888;8.736;2022-09-20T09:17:34;21.00;99.90
34522;DHT22;25561;48.888;8.736;2022-09-20T09:20:40;22.30;99.90
34522;DHT22;25561;48.888;8.736;2022-09-20T09:23:52;21.00;99.90
34522;DHT22;25561;48.888;8.736;2022-09-20T09:27:11;22.60;99.90
34522;DHT22;25561;48.888;8.736;2022-09-20T09:30:37;22.40;99.90
34522;DHT22;25561;48.888;8.736;2022-09-20T09:33:43;22.00;99.90
34522;DHT22;25561;48.888;8.736;2022-09-20T09:36:46;22.10;99.90
34522;DHT22;25561;48.888;8.736;2022-09-20T09:40:05;21.90;99.90
34522;DHT22;25561;48.888;8.736;2022-09-20T09:43:19;22.10;99.90
34522;DHT22;25561;48.888;8.736;2022-09-20T09:46:24;20.70;99.90
34522;DHT22;25561;48.888;8.736;2022-09-20T09:49:30;19.90;99.90
34522;DHT22;25561;48.888;8.736;2022-09-20T09:52:37;18.40;99.90
34522;DHT22;25561;48.888;8.736;2022-09-20T09:55:57;17.70;99.90
34522;DHT22;25561;48.888;8.736;2022-09-20T09:59:13;17.30;99.90
34522;DHT22;25561;48.888;8.736;2022-09-20T10:09:43;20.00;99.90
34522;DHT22;25561;48.888;8.736;2022-09-20T10:13:14;19.50;99.90
34522;DHT22;25561;48.888;8.736;2022-09-20T10:23:22;17.90;99.90
34522;DHT22;25561;48.888;8.736;2022-09-20T10:26:56;18.70;99.90
34522;DHT22;25561;48.888;8.736;2022-09-20T10:30:09;18.50;99.90
34522;DHT22;25561;48.888;8.736;2022-09-20T10:33:53;17.80;99.90
34522;DHT22;25561;48.888;8.736;2022-09-20T10:36:57;17.50;99.90
34522;DHT22;25561;48.888;8.736;2022-09-20T10:40:08;17.20;99.90
34522;DHT22;25561;48.888;8.736;2022-09-20T10:43:41;16.80;99.90
34522;DHT22;25561;48.888;8.736;2022-09-20T10:47:28;17.50;99.90
34522;DHT22;25561;48.888;8.736;2022-09-20T10:53:57;19.10;99.90
34522;DHT22;25561;48.888;8.736;2022-09-20T10:58:01;19.20;99.90
34522;DHT22;25561;48.888;8.736;2022-09-20T11:01:02;18.60;99.90
34522;DHT22;25561;48.888;8.736;2022-09-20T11:04:48;17.80;99.90
34522;DHT22;25561;48.888;8.736;2022-09-20T11:08:13;17.20;99.90
34522;DHT22;25561;48.888;8.736;2022-09-20T11:11:24;16.50;99.90
34522;DHT22;25561;48.888;8.736;2022-09-20T11:14:32;16.30;99.90
34522;DHT22;25561;48.888;8.736;2022-09-20T11:17:40;16.30;99.90
34522;DHT22;25561;48.888;8.736;2022-09-20T11:20:47;16.40;99.90
34522;DHT22;25561;48.888;8.736;2022-09-20T11:27:05;17.10;99.90
34522;DHT22;25561;48.888;8.736;2022-09-20T11:30:19;17.10;99.90
34522;DHT22;25561;48.888;8.736;2022-09-20T11:33:26;17.10;99.90
34522;DHT22;25561;48.888;8.736;2022-09-20T11:36:43;17.10;99.90
34522;DHT22;25561;48.888;8.736;2022-09-20T11:39:53;17.50;99.90
34522;DHT22;25561;48.888;8.736;2022-09-20T11:42:56;17.40;99.90
34522;DHT22;25561;48.888;8.736;2022-09-20T11:46:03;17.10;99.90
34522;DHT22;25561;48.888;8.736;2022-09-20T11:49:12;17.00;99.90
34522;DHT22;25561;48.888;8.736;2022-09-20T11:55:37;17.40;99.90
34522;DHT22;25561;48.888;8.736;2022-09-20T11:58:44;16.80;99.90
34522;DHT22;25561;48.888;8.736;2022-09-20T12:01:54;17.00;99.90
34522;DHT22;25561;48.888;8.736;2022-09-20T12:04:58;17.00;99.90
34522;DHT22;25561;48.888;8.736;2022-09-20T12:08:07;17.00;99.90
34522;DHT22;25561;48.888;8.736;2022-09-20T12:11:36;17.60;99.90
34522;DHT22;25561;48.888;8.736;2022-09-20T12:14:39;17.30;99.90
34522;DHT22;25561;48.888;8.736;2022-09-20T12:20:58;16.40;99.90
34522;DHT22;25561;48.888;8.736;2022-09-20T12:24:16;16.50;99.90
34522;DHT22;25561;48.888;8.736;2022-09-20T12:30:40;17.00;99.90
34522;DHT22;25561;48.888;8.736;2022-09-20T12:34:01;16.40;99.90
34522;DHT22;25561;48.888;8.736;2022-09-20T12:40:14;18.20;99.90
34522;DHT22;25561;48.888;8.736;2022-09-20T12:43:18;17.80;99.90
34522;DHT22;25561;48.888;8.736;2022-09-20T12:46:29;16.70;99.90
34522;DHT22;25561;48.888;8.736;2022-09-20T12:49:47;16.20;99.90
34522;DHT22;25561;48.888;8.736;2022-09-20T12:53:14;15.90;99.90
34522;DHT22;25561;48.888;8.736;2022-09-20T12:56:21;15.80;99.90
34522;DHT22;25561;48.888;8.736;2022-09-20T12:59:26;15.90;99.90
34522;DHT22;25561;48.888;8.736;2022-09-20T13:09:13;15.70;99.90
34522;DHT22;25561;48.888;8.736;2022-09-20T13:12:15;15.40;99.90
34522;DHT22;25561;48.888;8.736;2022-09-20T13:15:18;15.40;99.90
34522;DHT22;25561;48.888;8.736;2022-09-20T13:18:23;15.00;99.90
34522;DHT22;25561;48.888;8.736;2022-09-20T13:21:26;14.70;99.90
34522;DHT22;25561;48.888;8.736;2022-09-20T13:24:32;14.30;99.90
34522;DHT22;25561;48.888;8.736;2022-09-20T13:27:39;14.10;99.90
34522;DHT22;25561;48.888;8.736;2022-09-20T13:30:41;14.30;99.90
34522;DHT22;25561;48.888;8.736;2022-09-20T13:33:43;14.00;99.90
34522;DHT22;25561;48.888;8.736;2022-09-20T13:36:45;13.70;99.90
34522;DHT22;25561;48.888;8.736;2022-09-20T13:39:52;13.50;99.90
34522;DHT22;25561;48.888;8.736;2022-09-20T13:42:55;13.90;99.90
34522;DHT22;25561;48.888;8.736;2022-09-20T13:46:27;13.80;99.90
34522;DHT22;25561;48.888;8.736;2022-09-20T13:49:30;13.80;99.90
34522;DHT22;25561;48.888;8.736;2022-09-20T13:52:32;14.00;99.90
34522;DHT22;25561;48.888;8.736;2022-09-20T13:55:36;14.50;99.90
34522;DHT22;25561;48.888;8.736;2022-09-20T13:58:40;14.80;99.90
34522;DHT22;25561;48.888;8.736;2022-09-20T14:01:52;15.10;99.90
34522;DHT22;25561;48.888;8.736;2022-09-20T14:04:56;15.50;99.90
34522;DHT22;25561;48.888;8.736;2022-09-20T14:08:01;15.80;99.90
34522;DHT22;25561;48.888;8.736;2022-09-20T14:11:07;16.00;99.90
34522;DHT22;25561;48.888;8.736;2022-09-20T14:14:13;15.50;99.90
34522;DHT22;25561;48.888;8.736;2022-09-20T14:17:22;15.00;99.90
34522;DHT22;25561;48.888;8.736;2022-09-20T14:20:25;14.60;99.90
34522;DHT22;25561;48.888;8.736;2022-09-20T14:23:28;14.50;99.90
34522;DHT22;25561;48.888;8.736;2022-09-20T14:26:33;14.80;99.90
34522;DHT22;25561;48.888;8.736;2022-09-20T14:29:40;14.70;99.90
34522;DHT22;25561;48.888;8.736;2022-09-20T14:32:48;14.80;99.90
34522;DHT22;25561;48.888;8.736;2022-09-20T14:35:52;14.80;99.90
34522;DHT22;25561;48.888;8.736;2022-09-20T14:38:56;14.80;99.90
34522;DHT22;25561;48.888;8.736;2022-09-20T14:41:59;14.60;99.90
34522;DHT22;25561;48.888;8.736;2022-09-20T14:45:03;14.50;99.90
34522;DHT22;25561;48.888;8.736;2022-09-20T14:54:29;14.50;99.90
34522;DHT22;25561;48.888;8.736;2022-09-20T14:57:32;14.30;99.90
34522;DHT22;25561;48.888;8.736;2022-09-20T15:00:55;14.10;99.90
34522;DHT22;25561;48.888;8.736;2022-09-20T15:04:06;13.90;99.90
34522;DHT22;25561;48.888;8.736;2022-09-20T15:07:09;13.90;99.90
34522;DHT22;25561;48.888;8.736;2022-09-20T15:10:13;14.10;99.90
34522;DHT22;25561;48.888;8.736;2022-09-20T15:13:15;14.00;99.90
34522;DHT22;25561;48.888;8.736;2022-09-20T15:16:19;14.10;99.90
34522;DHT22;25561;48.888;8.736;2022-09-20T15:19:20;14.20;99.90
34522;DHT22;25561;48.888;8.736;2022-09-20T15:22:22;14.20;99.90
34522;DHT22;25561;48.888;8.736;2022-09-20T15:25:24;14.20;99.90
34522;DHT22;25561;48.888;8.736;2022-09-20T15:28:27;14.10;99.90
34522;DHT22;25561;48.888;8.736;2022-09-20T15:31:28;14.20;99.90
34522;DHT22;25561;48.888;8.736;2022-09-20T15:34:31;14.30;99.90
34522;DHT22;25561;48.888;8.736;2022-09-20T15:37:33;14.10;99.90
34522;DHT22;25561;48.888;8.736;2022-09-20T15:40:35;14.10;99.90
34522;DHT22;25561;48.888;8.736;2022-09-20T15:43:37;14.00;99.90
34522;DHT22;25561;48.888;8.736;2022-09-20T15:46:40;13.80;99.90
34522;DHT22;25561;48.888;8.736;2022-09-20T15:49:42;13.90;99.90
34522;DHT22;25561;48.888;8.736;2022-09-20T15:52:47;14.00;99.90
34522;DHT22;25561;48.888;8.736;2022-09-20T15:55:51;14.20;99.90
34522;DHT22;25561;48.888;8.736;2022-09-20T15:58:55;14.30;99.90
